sensor_id;sensor_type;location;lat;lon;timestamp;temperature;humidity
55719;DHT22;41623;46.104;19.656;2022-08-05T00:01:14;742.90;1075.20
55719;DHT22;41623;46.104;19.656;2022-08-05T00:03:40;742.90;1075.20
55719;DHT22;41623;46.104;19.656;2022-08-05T00:06:06;742.90;1049.60
55719;DHT22;41623;46.104;19.656;2022-08-05T00:08:32;742.90;1075.20
55719;DHT22;41623;46.104;19.656;2022-08-05T00:11:00;742.90;1049.60
55719;DHT22;41623;46.104;19.656;2022-08-05T00:13:27;742.90;1049.60
55719;DHT22;41623;46.104;19.656;2022-08-05T00:15:53;742.90;1049.60
55719;DHT22;41623;46.104;19.656;2022-08-05T00:18:19;742.90;1049.60
55719;DHT22;41623;46.104;19.656;2022-08-05T00:20:45;742.90;1049.60
55719;DHT22;41623;46.104;19.656;2022-08-05T00:23:10;742.90;1075.20
55719;DHT22;41623;46.104;19.656;2022-08-05T00:25:36;742.90;1049.60
55719;DHT22;41623;46.104;19.656;2022-08-05T00:28:02;743.10;1049.60
55719;DHT22;41623;46.104;19.656;2022-08-05T00:30:27;743.00;1049.60
55719;DHT22;41623;46.104;19.656;2022-08-05T00:32:53;742.90;1049.60
55719;DHT22;41623;46.104;19.656;2022-08-05T00:35:19;742.90;1049.60
55719;DHT22;41623;46.104;19.656;2022-08-05T00:37:45;742.90;1075.20
55719;DHT22;41623;46.104;19.656;2022-08-05T00:40:11;742.90;1049.60
55719;DHT22;41623;46.104;19.656;2022-08-05T00:42:37;742.90;1075.20
55719;DHT22;41623;46.104;19.656;2022-08-05T00:45:08;743.10;1049.60
55719;DHT22;41623;46.104;19.656;2022-08-05T00:47:34;742.90;1049.60
55719;DHT22;41623;46.104;19.656;2022-08-05T00:50:00;743.00;1049.60
55719;DHT22;41623;46.104;19.656;2022-08-05T00:57:18;743.10;1049.60
55719;DHT22;41623;46.104;19.656;2022-08-05T00:59:43;743.00;1049.60
55719;DHT22;41623;46.104;19.656;2022-08-05T01:02:09;742.90;1049.60
55719;DHT22;41623;46.104;19.656;2022-08-05T01:04:35;742.90;1075.20
55719;DHT22;41623;46.104;19.656;2022-08-05T01:07:01;742.90;1075.20
55719;DHT22;41623;46.104;19.656;2022-08-05T01:09:27;742.80;1075.20
55719;DHT22;41623;46.104;19.656;2022-08-05T01:11:54;742.80;1049.60
55719;DHT22;41623;46.104;19.656;2022-08-05T01:16:59;742.80;1049.60
55719;DHT22;41623;46.104;19.656;2022-08-05T01:19:51;742.80;1075.20
55719;DHT22;41623;46.104;19.656;2022-08-05T01:30:34;742.80;1075.20
55719;DHT22;41623;46.104;19.656;2022-08-05T01:33:04;742.80;1075.20
55719;DHT22;41623;46.104;19.656;2022-08-05T01:35:32;742.80;1075.20
55719;DHT22;41623;46.104;19.656;2022-08-05T01:38:00;742.80;1075.20
55719;DHT22;41623;46.104;19.656;2022-08-05T01:40:28;742.80;1075.20
55719;DHT22;41623;46.104;19.656;2022-08-05T01:42:56;742.80;1075.20
55719;DHT22;41623;46.104;19.656;2022-08-05T01:45:25;742.80;1075.20
55719;DHT22;41623;46.104;19.656;2022-08-05T01:47:53;742.80;1075.20
55719;DHT22;41623;46.104;19.656;2022-08-05T01:50:31;742.80;1075.20
55719;DHT22;41623;46.104;19.656;2022-08-05T01:53:02;742.80;1075.20
55719;DHT22;41623;46.104;19.656;2022-08-05T01:55:32;742.80;1075.20
55719;DHT22;41623;46.104;19.656;2022-08-05T01:57:58;742.80;1075.20
55719;DHT22;41623;46.104;19.656;2022-08-05T02:00:26;742.80;1075.20
55719;DHT22;41623;46.104;19.656;2022-08-05T02:03:19;742.80;1100.80
55719;DHT22;41623;46.104;19.656;2022-08-05T02:05:46;742.80;1075.20
55719;DHT22;41623;46.104;19.656;2022-08-05T02:08:13;742.80;1075.20
55719;DHT22;41623;46.104;19.656;2022-08-05T02:10:43;742.80;1100.80
55719;DHT22;41623;46.104;19.656;2022-08-05T02:13:16;742.80;1075.20
55719;DHT22;41623;46.104;19.656;2022-08-05T02:15:53;742.80;1075.20
55719;DHT22;41623;46.104;19.656;2022-08-05T02:18:24;742.80;1075.20
55719;DHT22;41623;46.104;19.656;2022-08-05T02:20:56;742.80;1075.20
55719;DHT22;41623;46.104;19.656;2022-08-05T02:23:30;742.80;1075.20
55719;DHT22;41623;46.104;19.656;2022-08-05T02:25:57;742.80;1075.20
55719;DHT22;41623;46.104;19.656;2022-08-05T02:28:28;742.80;1075.20
55719;DHT22;41623;46.104;19.656;2022-08-05T02:31:04;742.80;1075.20
55719;DHT22;41623;46.104;19.656;2022-08-05T02:33:34;742.80;1100.80
55719;DHT22;41623;46.104;19.656;2022-08-05T02:36:02;742.70;1100.80
55719;DHT22;41623;46.104;19.656;2022-08-05T02:38:30;742.60;1100.80
55719;DHT22;41623;46.104;19.656;2022-08-05T02:40:58;742.60;1100.80
55719;DHT22;41623;46.104;19.656;2022-08-05T02:43:25;742.60;1126.40
55719;DHT22;41623;46.104;19.656;2022-08-05T02:45:52;742.60;1100.80
55719;DHT22;41623;46.104;19.656;2022-08-05T02:48:19;742.60;1100.80
55719;DHT22;41623;46.104;19.656;2022-08-05T02:50:46;742.60;1100.80
55719;DHT22;41623;46.104;19.656;2022-08-05T02:53:13;742.60;1100.80
55719;DHT22;41623;46.104;19.656;2022-08-05T02:55:40;742.50;1100.80
55719;DHT22;41623;46.104;19.656;2022-08-05T02:58:06;742.50;1100.80
55719;DHT22;41623;46.104;19.656;2022-08-05T03:00:34;742.60;1100.80
55719;DHT22;41623;46.104;19.656;2022-08-05T03:03:01;742.60;1100.80
55719;DHT22;41623;46.104;19.656;2022-08-05T03:05:28;742.60;1100.80
55719;DHT22;41623;46.104;19.656;2022-08-05T03:07:54;742.60;1100.80
55719;DHT22;41623;46.104;19.656;2022-08-05T03:10:20;742.60;1100.80
55719;DHT22;41623;46.104;19.656;2022-08-05T03:12:47;742.60;1100.80
55719;DHT22;41623;46.104;19.656;2022-08-05T03:15:13;742.60;1100.80
55719;DHT22;41623;46.104;19.656;2022-08-05T03:17:39;742.60;1100.80
55719;DHT22;41623;46.104;19.656;2022-08-05T03:20:06;742.60;1100.80
55719;DHT22;41623;46.104;19.656;2022-08-05T03:22:32;742.60;1100.80
55719;DHT22;41623;46.104;19.656;2022-08-05T03:24:58;742.60;1100.80
55719;DHT22;41623;46.104;19.656;2022-08-05T03:27:24;742.60;1100.80
55719;DHT22;41623;46.104;19.656;2022-08-05T03:29:51;742.60;1100.80
55719;DHT22;41623;46.104;19.656;2022-08-05T03:32:18;742.50;1100.80
55719;DHT22;41623;46.104;19.656;2022-08-05T03:34:44;742.50;1100.80
55719;DHT22;41623;46.104;19.656;2022-08-05T03:37:11;742.50;1075.20
55719;DHT22;41623;46.104;19.656;2022-08-05T03:39:37;742.40;1075.20
55719;DHT22;41623;46.104;19.656;2022-08-05T03:42:03;742.40;1075.20
55719;DHT22;41623;46.104;19.656;2022-08-05T03:44:29;717.70;1049.60
55719;DHT22;41623;46.104;19.656;2022-08-05T03:46:54;717.70;1049.60
55719;DHT22;41623;46.104;19.656;2022-08-05T03:49:20;717.70;1049.60
55719;DHT22;41623;46.104;19.656;2022-08-05T03:51:56;717.70;1049.60
55719;DHT22;41623;46.104;19.656;2022-08-05T03:57:12;717.70;1049.60
55719;DHT22;41623;46.104;19.656;2022-08-05T03:59:45;717.70;1049.60
55719;DHT22;41623;46.104;19.656;2022-08-05T04:02:14;717.70;1049.60
55719;DHT22;41623;46.104;19.656;2022-08-05T04:04:42;717.70;1049.60
55719;DHT22;41623;46.104;19.656;2022-08-05T04:07:09;717.70;1049.60
55719;DHT22;41623;46.104;19.656;2022-08-05T04:09:35;717.70;1049.60
55719;DHT22;41623;46.104;19.656;2022-08-05T04:12:01;717.70;1049.60
55719;DHT22;41623;46.104;19.656;2022-08-05T04:14:27;717.70;1049.60
55719;DHT22;41623;46.104;19.656;2022-08-05T04:16:54;717.70;1049.60
55719;DHT22;41623;46.104;19.656;2022-08-05T04:19:20;717.70;1049.60
55719;DHT22;41623;46.104;19.656;2022-08-05T04:21:45;717.70;1049.60
55719;DHT22;41623;46.104;19.656;2022-08-05T04:24:11;717.70;1049.60
55719;DHT22;41623;46.104;19.656;2022-08-05T04:26:37;717.70;1049.60
55719;DHT22;41623;46.104;19.656;2022-08-05T04:29:03;717.70;1049.60
55719;DHT22;41623;46.104;19.656;2022-08-05T04:31:29;717.70;1049.60
55719;DHT22;41623;46.104;19.656;2022-08-05T04:33:54;717.60;1049.60
55719;DHT22;41623;46.104;19.656;2022-08-05T04:36:20;717.70;1049.60
55719;DHT22;41623;46.104;19.656;2022-08-05T04:38:46;717.70;1049.60
55719;DHT22;41623;46.104;19.656;2022-08-05T04:41:12;717.50;1049.60
55719;DHT22;41623;46.104;19.656;2022-08-05T04:43:38;717.70;1049.60
55719;DHT22;41623;46.104;19.656;2022-08-05T04:46:04;742.40;1075.20
55719;DHT22;41623;46.104;19.656;2022-08-05T04:48:30;742.40;1075.20
55719;DHT22;41623;46.104;19.656;2022-08-05T04:50:56;742.40;1075.20
55719;DHT22;41623;46.104;19.656;2022-08-05T04:53:21;742.40;1075.20
55719;DHT22;41623;46.104;19.656;2022-08-05T04:55:47;742.40;1075.20
55719;DHT22;41623;46.104;19.656;2022-08-05T04:58:15;717.70;1049.60
55719;DHT22;41623;46.104;19.656;2022-08-05T05:00:41;717.70;1049.60
55719;DHT22;41623;46.104;19.656;2022-08-05T05:03:08;717.70;1049.60
55719;DHT22;41623;46.104;19.656;2022-08-05T05:05:35;717.70;1049.60
55719;DHT22;41623;46.104;19.656;2022-08-05T05:08:06;717.70;1049.60
55719;DHT22;41623;46.104;19.656;2022-08-05T05:10:40;717.70;1049.60
55719;DHT22;41623;46.104;19.656;2022-08-05T05:13:10;742.40;1075.20
55719;DHT22;41623;46.104;19.656;2022-08-05T05:15:37;742.40;1075.20
55719;DHT22;41623;46.104;19.656;2022-08-05T05:18:03;742.40;1075.20
55719;DHT22;41623;46.104;19.656;2022-08-05T05:20:29;742.40;1075.20
55719;DHT22;41623;46.104;19.656;2022-08-05T05:22:59;742.40;1075.20
55719;DHT22;41623;46.104;19.656;2022-08-05T05:25:26;742.40;1075.20
55719;DHT22;41623;46.104;19.656;2022-08-05T05:27:52;742.40;1075.20
55719;DHT22;41623;46.104;19.656;2022-08-05T05:30:18;742.40;1075.20
55719;DHT22;41623;46.104;19.656;2022-08-05T05:32:44;742.40;1075.20
55719;DHT22;41623;46.104;19.656;2022-08-05T05:35:10;742.40;1075.20
55719;DHT22;41623;46.104;19.656;2022-08-05T05:37:52;742.40;1075.20
55719;DHT22;41623;46.104;19.656;2022-08-05T05:40:20;742.50;1075.20
55719;DHT22;41623;46.104;19.656;2022-08-05T05:42:47;742.50;1049.60
55719;DHT22;41623;46.104;19.656;2022-08-05T05:45:13;742.50;1049.60
55719;DHT22;41623;46.104;19.656;2022-08-05T05:47:39;742.50;1049.60
55719;DHT22;41623;46.104;19.656;2022-08-05T05:50:10;742.50;1049.60
55719;DHT22;41623;46.104;19.656;2022-08-05T05:52:36;742.50;1049.60
55719;DHT22;41623;46.104;19.656;2022-08-05T05:55:04;742.50;1049.60
55719;DHT22;41623;46.104;19.656;2022-08-05T05:57:30;742.50;1049.60
55719;DHT22;41623;46.104;19.656;2022-08-05T05:59:56;742.60;1049.60
55719;DHT22;41623;46.104;19.656;2022-08-05T06:02:22;742.60;1049.60
55719;DHT22;41623;46.104;19.656;2022-08-05T06:04:47;742.60;1075.20
55719;DHT22;41623;46.104;19.656;2022-08-05T06:07:13;742.60;1049.60
55719;DHT22;41623;46.104;19.656;2022-08-05T06:09:39;742.60;1049.60
55719;DHT22;41623;46.104;19.656;2022-08-05T06:12:05;742.60;1075.20
55719;DHT22;41623;46.104;19.656;2022-08-05T06:14:31;742.70;1075.20
55719;DHT22;41623;46.104;19.656;2022-08-05T06:16:58;742.70;1075.20
55719;DHT22;41623;46.104;19.656;2022-08-05T06:19:25;742.70;1049.60
55719;DHT22;41623;46.104;19.656;2022-08-05T06:21:51;742.70;1049.60
55719;DHT22;41623;46.104;19.656;2022-08-05T06:24:17;742.80;1049.60
55719;DHT22;41623;46.104;19.656;2022-08-05T06:26:42;742.80;1049.60
55719;DHT22;41623;46.104;19.656;2022-08-05T06:29:08;742.80;1049.60
55719;DHT22;41623;46.104;19.656;2022-08-05T06:31:34;742.80;1049.60
55719;DHT22;41623;46.104;19.656;2022-08-05T06:34:01;742.80;1049.60
55719;DHT22;41623;46.104;19.656;2022-08-05T06:36:27;742.80;1049.60
55719;DHT22;41623;46.104;19.656;2022-08-05T06:38:53;742.80;1049.60
55719;DHT22;41623;46.104;19.656;2022-08-05T06:41:22;742.80;1049.60
55719;DHT22;41623;46.104;19.656;2022-08-05T06:43:48;742.80;1049.60
55719;DHT22;41623;46.104;19.656;2022-08-05T06:46:14;742.80;1049.60
55719;DHT22;41623;46.104;19.656;2022-08-05T06:48:40;742.80;1049.60
55719;DHT22;41623;46.104;19.656;2022-08-05T06:51:06;742.80;1049.60
55719;DHT22;41623;46.104;19.656;2022-08-05T06:53:32;742.80;1049.60
55719;DHT22;41623;46.104;19.656;2022-08-05T06:56:00;742.80;1075.20
55719;DHT22;41623;46.104;19.656;2022-08-05T06:58:29;742.80;1049.60
55719;DHT22;41623;46.104;19.656;2022-08-05T07:01:00;742.80;1075.20
55719;DHT22;41623;46.104;19.656;2022-08-05T07:03:26;742.80;1075.20
55719;DHT22;41623;46.104;19.656;2022-08-05T07:05:53;742.80;1049.60
55719;DHT22;41623;46.104;19.656;2022-08-05T07:08:19;742.80;1075.20
55719;DHT22;41623;46.104;19.656;2022-08-05T07:10:47;742.80;1075.20
55719;DHT22;41623;46.104;19.656;2022-08-05T07:13:13;742.80;1075.20
55719;DHT22;41623;46.104;19.656;2022-08-05T07:15:57;742.90;1049.60
55719;DHT22;41623;46.104;19.656;2022-08-05T07:18:41;742.90;1075.20
55719;DHT22;41623;46.104;19.656;2022-08-05T07:21:07;742.90;1075.20
55719;DHT22;41623;46.104;19.656;2022-08-05T07:23:33;742.90;1075.20
55719;DHT22;41623;46.104;19.656;2022-08-05T07:25:59;742.80;1075.20
55719;DHT22;41623;46.104;19.656;2022-08-05T07:28:25;742.80;1075.20
55719;DHT22;41623;46.104;19.656;2022-08-05T07:30:51;742.80;1075.20
55719;DHT22;41623;46.104;19.656;2022-08-05T07:33:17;742.80;1075.20
55719;DHT22;41623;46.104;19.656;2022-08-05T07:35:45;742.90;1075.20
55719;DHT22;41623;46.104;19.656;2022-08-05T07:38:12;742.90;1075.20
55719;DHT22;41623;46.104;19.656;2022-08-05T07:40:38;742.90;1075.20
55719;DHT22;41623;46.104;19.656;2022-08-05T07:43:03;742.90;1075.20
55719;DHT22;41623;46.104;19.656;2022-08-05T07:45:29;742.90;1075.20
55719;DHT22;41623;46.104;19.656;2022-08-05T07:47:55;742.90;1075.20
55719;DHT22;41623;46.104;19.656;2022-08-05T07:50:21;742.90;1075.20
55719;DHT22;41623;46.104;19.656;2022-08-05T07:52:47;742.90;1075.20
55719;DHT22;41623;46.104;19.656;2022-08-05T07:55:12;742.90;1075.20
55719;DHT22;41623;46.104;19.656;2022-08-05T07:57:38;742.90;1075.20
55719;DHT22;41623;46.104;19.656;2022-08-05T08:00:04;742.90;1075.20
55719;DHT22;41623;46.104;19.656;2022-08-05T08:02:30;742.90;1075.20
55719;DHT22;41623;46.104;19.656;2022-08-05T08:04:58;742.90;1075.20
55719;DHT22;41623;46.104;19.656;2022-08-05T08:07:24;742.90;1100.80
55719;DHT22;41623;46.104;19.656;2022-08-05T08:09:50;742.90;1075.20
55719;DHT22;41623;46.104;19.656;2022-08-05T08:12:16;742.90;1100.80
55719;DHT22;41623;46.104;19.656;2022-08-05T08:14:43;742.90;1075.20
55719;DHT22;41623;46.104;19.656;2022-08-05T08:17:09;742.90;1075.20
55719;DHT22;41623;46.104;19.656;2022-08-05T08:19:38;742.90;1075.20
55719;DHT22;41623;46.104;19.656;2022-08-05T08:22:04;742.90;1075.20
55719;DHT22;41623;46.104;19.656;2022-08-05T08:24:30;742.90;1075.20
55719;DHT22;41623;46.104;19.656;2022-08-05T08:26:56;742.90;1075.20
55719;DHT22;41623;46.104;19.656;2022-08-05T08:29:22;742.90;1075.20
55719;DHT22;41623;46.104;19.656;2022-08-05T08:31:49;742.80;1075.20
55719;DHT22;41623;46.104;19.656;2022-08-05T08:34:19;742.90;1075.20
55719;DHT22;41623;46.104;19.656;2022-08-05T08:36:45;742.90;1075.20
55719;DHT22;41623;46.104;19.656;2022-08-05T08:39:10;742.90;1075.20
55719;DHT22;41623;46.104;19.656;2022-08-05T08:41:37;742.90;1075.20
55719;DHT22;41623;46.104;19.656;2022-08-05T08:44:07;742.90;1075.20
55719;DHT22;41623;46.104;19.656;2022-08-05T08:46:33;742.90;1075.20
55719;DHT22;41623;46.104;19.656;2022-08-05T08:49:02;742.90;1075.20
55719;DHT22;41623;46.104;19.656;2022-08-05T08:51:31;742.90;1075.20
55719;DHT22;41623;46.104;19.656;2022-08-05T08:53:58;743.00;1075.20
55719;DHT22;41623;46.104;19.656;2022-08-05T08:56:24;743.20;1075.20
55719;DHT22;41623;46.104;19.656;2022-08-05T08:58:51;742.90;1075.20
55719;DHT22;41623;46.104;19.656;2022-08-05T09:01:17;743.00;1075.20
55719;DHT22;41623;46.104;19.656;2022-08-05T09:03:45;743.00;1075.20
55719;DHT22;41623;46.104;19.656;2022-08-05T09:06:12;743.00;1075.20
55719;DHT22;41623;46.104;19.656;2022-08-05T09:08:38;743.00;1075.20
55719;DHT22;41623;46.104;19.656;2022-08-05T09:11:03;743.00;1075.20
55719;DHT22;41623;46.104;19.656;2022-08-05T09:13:30;743.00;1075.20
55719;DHT22;41623;46.104;19.656;2022-08-05T09:15:57;743.00;1075.20
55719;DHT22;41623;46.104;19.656;2022-08-05T09:18:24;743.00;1075.20
55719;DHT22;41623;46.104;19.656;2022-08-05T09:20:50;743.00;1075.20
55719;DHT22;41623;46.104;19.656;2022-08-05T09:28:17;743.30;1049.60
55719;DHT22;41623;46.104;19.656;2022-08-05T09:35:36;768.00;1049.60
55719;DHT22;41623;46.104;19.656;2022-08-05T09:38:06;743.10;1049.60
55719;DHT22;41623;46.104;19.656;2022-08-05T09:40:34;743.10;1049.60
55719;DHT22;41623;46.104;19.656;2022-08-05T09:43:01;743.10;1049.60
55719;DHT22;41623;46.104;19.656;2022-08-05T09:45:38;743.10;1049.60
55719;DHT22;41623;46.104;19.656;2022-08-05T09:50:56;743.10;1049.60
55719;DHT22;41623;46.104;19.656;2022-08-05T09:53:22;743.10;1049.60
55719;DHT22;41623;46.104;19.656;2022-08-05T09:55:59;743.10;1049.60
55719;DHT22;41623;46.104;19.656;2022-08-05T09:58:26;743.10;1049.60
55719;DHT22;41623;46.104;19.656;2022-08-05T10:01:04;743.10;1049.60
55719;DHT22;41623;46.104;19.656;2022-08-05T10:03:30;743.10;1049.60
55719;DHT22;41623;46.104;19.656;2022-08-05T10:06:09;743.10;1049.60
55719;DHT22;41623;46.104;19.656;2022-08-05T10:08:37;743.10;1049.60
55719;DHT22;41623;46.104;19.656;2022-08-05T10:11:12;743.10;1049.60
55719;DHT22;41623;46.104;19.656;2022-08-05T10:13:39;743.10;1049.60
55719;DHT22;41623;46.104;19.656;2022-08-05T10:16:06;743.10;1049.60
55719;DHT22;41623;46.104;19.656;2022-08-05T10:18:53;743.10;1049.60
55719;DHT22;41623;46.104;19.656;2022-08-05T10:21:19;743.10;1049.60
55719;DHT22;41623;46.104;19.656;2022-08-05T10:23:45;743.10;1049.60
55719;DHT22;41623;46.104;19.656;2022-08-05T10:26:12;743.10;1049.60
55719;DHT22;41623;46.104;19.656;2022-08-05T10:28:38;743.10;1049.60
55719;DHT22;41623;46.104;19.656;2022-08-05T10:31:05;743.10;1049.60
55719;DHT22;41623;46.104;19.656;2022-08-05T10:33:32;743.00;1049.60
55719;DHT22;41623;46.104;19.656;2022-08-05T10:35:59;743.00;1049.60
55719;DHT22;41623;46.104;19.656;2022-08-05T10:38:27;743.00;1049.60
55719;DHT22;41623;46.104;19.656;2022-08-05T10:43:58;743.00;1049.60
55719;DHT22;41623;46.104;19.656;2022-08-05T10:46:48;743.00;1049.60
55719;DHT22;41623;46.104;19.656;2022-08-05T10:49:18;743.00;1049.60
55719;DHT22;41623;46.104;19.656;2022-08-05T10:51:45;743.00;1049.60
55719;DHT22;41623;46.104;19.656;2022-08-05T10:54:12;743.00;1049.60
55719;DHT22;41623;46.104;19.656;2022-08-05T10:56:46;743.00;1049.60
55719;DHT22;41623;46.104;19.656;2022-08-05T11:57:50;742.40;1152.00
55719;DHT22;41623;46.104;19.656;2022-08-05T12:00:29;743.00;1075.20
55719;DHT22;41623;46.104;19.656;2022-08-05T12:02:55;743.10;1075.20
55719;DHT22;41623;46.104;19.656;2022-08-05T12:05:25;743.00;1075.20
55719;DHT22;41623;46.104;19.656;2022-08-05T12:07:51;743.00;1049.60
55719;DHT22;41623;46.104;19.656;2022-08-05T12:10:24;743.00;1049.60
55719;DHT22;41623;46.104;19.656;2022-08-05T12:12:51;743.00;1049.60
55719;DHT22;41623;46.104;19.656;2022-08-05T12:15:21;743.00;1049.60
55719;DHT22;41623;46.104;19.656;2022-08-05T12:17:47;743.00;1049.60
55719;DHT22;41623;46.104;19.656;2022-08-05T12:20:13;743.00;1049.60
55719;DHT22;41623;46.104;19.656;2022-08-05T12:22:39;743.00;1049.60
55719;DHT22;41623;46.104;19.656;2022-08-05T12:25:05;743.00;1049.60
55719;DHT22;41623;46.104;19.656;2022-08-05T12:27:31;743.00;1049.60
55719;DHT22;41623;46.104;19.656;2022-08-05T12:30:11;743.00;1024.00
55719;DHT22;41623;46.104;19.656;2022-08-05T12:32:45;743.00;1024.00
55719;DHT22;41623;46.104;19.656;2022-08-05T12:35:11;743.00;1024.00
55719;DHT22;41623;46.104;19.656;2022-08-05T12:37:40;743.10;1024.00
55719;DHT22;41623;46.104;19.656;2022-08-05T12:40:08;743.00;1024.00
55719;DHT22;41623;46.104;19.656;2022-08-05T12:42:35;743.00;1024.00
55719;DHT22;41623;46.104;19.656;2022-08-05T12:45:05;743.00;1024.00
55719;DHT22;41623;46.104;19.656;2022-08-05T12:47:31;743.00;1024.00
55719;DHT22;41623;46.104;19.656;2022-08-05T12:50:15;743.00;1024.00
55719;DHT22;41623;46.104;19.656;2022-08-05T12:52:41;743.00;1024.00
55719;DHT22;41623;46.104;19.656;2022-08-05T12:55:27;743.00;1024.00
55719;DHT22;41623;46.104;19.656;2022-08-05T12:57:56;743.00;1024.00
55719;DHT22;41623;46.104;19.656;2022-08-05T13:00:24;743.00;1024.00
55719;DHT22;41623;46.104;19.656;2022-08-05T13:02:53;743.10;1024.00
55719;DHT22;41623;46.104;19.656;2022-08-05T13:05:22;743.10;1024.00
55719;DHT22;41623;46.104;19.656;2022-08-05T13:07:48;743.10;1024.00
55719;DHT22;41623;46.104;19.656;2022-08-05T13:10:15;743.00;1024.00
55719;DHT22;41623;46.104;19.656;2022-08-05T13:12:42;743.00;1024.00
55719;DHT22;41623;46.104;19.656;2022-08-05T13:15:12;743.00;1024.00
55719;DHT22;41623;46.104;19.656;2022-08-05T13:17:38;743.00;1024.00
55719;DHT22;41623;46.104;19.656;2022-08-05T13:22:35;743.00;1024.00
55719;DHT22;41623;46.104;19.656;2022-08-05T13:25:08;743.00;1024.00
55719;DHT22;41623;46.104;19.656;2022-08-05T13:27:36;743.00;1024.00
55719;DHT22;41623;46.104;19.656;2022-08-05T13:30:03;743.00;1024.00
55719;DHT22;41623;46.104;19.656;2022-08-05T13:32:29;743.00;1024.00
55719;DHT22;41623;46.104;19.656;2022-08-05T13:34:55;743.00;1024.00
55719;DHT22;41623;46.104;19.656;2022-08-05T13:37:21;743.00;1024.00
55719;DHT22;41623;46.104;19.656;2022-08-05T13:39:48;743.00;1024.00
55719;DHT22;41623;46.104;19.656;2022-08-05T13:42:14;743.00;1024.00
55719;DHT22;41623;46.104;19.656;2022-08-05T13:44:40;743.00;1024.00
55719;DHT22;41623;46.104;19.656;2022-08-05T13:47:06;743.00;1024.00
55719;DHT22;41623;46.104;19.656;2022-08-05T13:49:33;743.00;1024.00
55719;DHT22;41623;46.104;19.656;2022-08-05T13:52:12;743.00;1024.00
55719;DHT22;41623;46.104;19.656;2022-08-05T13:54:38;743.10;1024.00
55719;DHT22;41623;46.104;19.656;2022-08-05T13:57:04;743.10;1024.00
55719;DHT22;41623;46.104;19.656;2022-08-05T13:59:30;743.10;1024.00
55719;DHT22;41623;46.104;19.656;2022-08-05T14:01:57;743.10;1024.00
55719;DHT22;41623;46.104;19.656;2022-08-05T14:04:23;743.10;1024.00
55719;DHT22;41623;46.104;19.656;2022-08-05T14:07:07;743.10;1024.00
55719;DHT22;41623;46.104;19.656;2022-08-05T14:09:34;743.10;1024.00
55719;DHT22;41623;46.104;19.656;2022-08-05T14:11:59;743.10;1024.00
55719;DHT22;41623;46.104;19.656;2022-08-05T14:14:26;743.10;1024.00
55719;DHT22;41623;46.104;19.656;2022-08-05T14:16:52;743.10;1024.00
55719;DHT22;41623;46.104;19.656;2022-08-05T14:19:18;743.10;1024.00
55719;DHT22;41623;46.104;19.656;2022-08-05T14:21:43;743.10;1024.00
55719;DHT22;41623;46.104;19.656;2022-08-05T14:24:09;743.10;1024.00
55719;DHT22;41623;46.104;19.656;2022-08-05T14:26:37;743.10;1024.00
55719;DHT22;41623;46.104;19.656;2022-08-05T14:29:03;743.10;998.40
55719;DHT22;41623;46.104;19.656;2022-08-05T14:31:29;743.10;1024.00
55719;DHT22;41623;46.104;19.656;2022-08-05T14:33:55;743.10;1024.00
55719;DHT22;41623;46.104;19.656;2022-08-05T14:36:21;743.10;1024.00
55719;DHT22;41623;46.104;19.656;2022-08-05T14:38:46;743.10;1024.00
55719;DHT22;41623;46.104;19.656;2022-08-05T14:41:12;743.10;1024.00
55719;DHT22;41623;46.104;19.656;2022-08-05T14:43:38;743.10;1024.00
55719;DHT22;41623;46.104;19.656;2022-08-05T14:46:04;743.10;1024.00
55719;DHT22;41623;46.104;19.656;2022-08-05T14:48:30;743.10;1024.00
55719;DHT22;41623;46.104;19.656;2022-08-05T14:50:55;743.10;1024.00
55719;DHT22;41623;46.104;19.656;2022-08-05T14:53:21;743.10;1024.00
55719;DHT22;41623;46.104;19.656;2022-08-05T14:55:47;743.10;1024.00
55719;DHT22;41623;46.104;19.656;2022-08-05T14:58:13;743.10;1024.00
55719;DHT22;41623;46.104;19.656;2022-08-05T15:00:40;743.10;998.40
55719;DHT22;41623;46.104;19.656;2022-08-05T15:03:06;743.10;998.40
55719;DHT22;41623;46.104;19.656;2022-08-05T15:05:33;743.10;1024.00
55719;DHT22;41623;46.104;19.656;2022-08-05T15:08:00;743.10;1024.00
55719;DHT22;41623;46.104;19.656;2022-08-05T15:10:27;743.10;998.40
55719;DHT22;41623;46.104;19.656;2022-08-05T15:12:53;743.10;998.40
55719;DHT22;41623;46.104;19.656;2022-08-05T15:15:18;743.10;998.40
55719;DHT22;41623;46.104;19.656;2022-08-05T15:17:44;743.10;998.40
55719;DHT22;41623;46.104;19.656;2022-08-05T15:20:11;743.10;998.40
55719;DHT22;41623;46.104;19.656;2022-08-05T15:22:37;743.10;998.40
55719;DHT22;41623;46.104;19.656;2022-08-05T15:25:04;743.10;998.40
55719;DHT22;41623;46.104;19.656;2022-08-05T15:27:31;743.10;998.40
55719;DHT22;41623;46.104;19.656;2022-08-05T15:29:56;743.10;998.40
55719;DHT22;41623;46.104;19.656;2022-08-05T15:32:26;743.10;998.40
55719;DHT22;41623;46.104;19.656;2022-08-05T15:34:52;743.10;998.40
55719;DHT22;41623;46.104;19.656;2022-08-05T15:37:18;743.10;998.40
55719;DHT22;41623;46.104;19.656;2022-08-05T15:39:44;743.10;998.40
55719;DHT22;41623;46.104;19.656;2022-08-05T15:42:10;743.10;998.40
55719;DHT22;41623;46.104;19.656;2022-08-05T15:44:39;743.10;998.40
55719;DHT22;41623;46.104;19.656;2022-08-05T15:47:07;743.10;998.40
55719;DHT22;41623;46.104;19.656;2022-08-05T15:49:33;743.10;998.40
55719;DHT22;41623;46.104;19.656;2022-08-05T15:51:59;743.10;998.40
55719;DHT22;41623;46.104;19.656;2022-08-05T15:54:25;743.20;998.40
55719;DHT22;41623;46.104;19.656;2022-08-05T15:56:51;743.20;998.40
55719;DHT22;41623;46.104;19.656;2022-08-05T15:59:17;743.10;998.40
55719;DHT22;41623;46.104;19.656;2022-08-05T16:01:43;743.10;998.40
55719;DHT22;41623;46.104;19.656;2022-08-05T16:04:08;743.20;998.40
55719;DHT22;41623;46.104;19.656;2022-08-05T16:06:35;743.20;998.40
55719;DHT22;41623;46.104;19.656;2022-08-05T16:09:01;743.20;998.40
55719;DHT22;41623;46.104;19.656;2022-08-05T16:11:27;743.20;998.40
55719;DHT22;41623;46.104;19.656;2022-08-05T16:13:53;743.20;998.40